sensor_id;sensor_type;location;lat;lon;timestamp;pressure;altitude;pressure_sealevel;temperature;humidity
33845;BME280;20145;43.118;25.694;2023-03-21T00:01:02;99378.13;;;8.51;82.04
33845;BME280;20145;43.118;25.694;2023-03-21T00:03:29;99386.69;;;8.57;81.73
33845;BME280;20145;43.118;25.694;2023-03-21T00:05:55;99382.38;;;8.62;81.38
33845;BME280;20145;43.118;25.694;2023-03-21T00:08:23;99386.66;;;8.63;81.03
33845;BME280;20145;43.118;25.694;2023-03-21T00:11:15;99382.34;;;8.64;81.60
33845;BME280;20145;43.118;25.694;2023-03-21T00:13:40;99378.94;;;8.68;81.01
33845;BME280;20145;43.118;25.694;2023-03-21T00:16:15;99384.91;;;8.68;81.61
33845;BME280;20145;43.118;25.694;2023-03-21T00:18:48;99390.88;;;8.77;81.42
33845;BME280;20145;43.118;25.694;2023-03-21T00:21:19;99378.00;;;8.81;81.90
33845;BME280;20145;43.118;25.694;2023-03-21T00:23:45;99368.53;;;8.83;81.69
33845;BME280;20145;43.118;25.694;2023-03-21T00:26:12;99362.56;;;8.84;81.34
33845;BME280;20145;43.118;25.694;2023-03-21T00:28:39;99359.91;;;8.92;81.09
33845;BME280;20145;43.118;25.694;2023-03-21T00:31:05;99363.34;;;8.96;81.01
33845;BME280;20145;43.118;25.694;2023-03-21T00:33:32;99358.22;;;8.92;80.68
33845;BME280;20145;43.118;25.694;2023-03-21T00:35:59;99353.03;;;8.99;81.24
33845;BME280;20145;43.118;25.694;2023-03-21T00:38:26;99354.69;;;9.07;80.73
33845;BME280;20145;43.118;25.694;2023-03-21T00:40:51;99346.97;;;9.07;80.65
33845;BME280;20145;43.118;25.694;2023-03-21T00:43:17;99340.09;;;9.09;81.08
33845;BME280;20145;43.118;25.694;2023-03-21T00:45:44;99332.38;;;9.08;80.84
33845;BME280;20145;43.118;25.694;2023-03-21T00:48:11;99340.84;;;9.19;81.11
33845;BME280;20145;43.118;25.694;2023-03-21T00:50:37;99334.00;;;9.21;79.84
33845;BME280;20145;43.118;25.694;2023-03-21T00:53:03;99335.59;;;9.33;79.19
33845;BME280;20145;43.118;25.694;2023-03-21T00:55:29;99333.81;;;9.43;78.74
33845;BME280;20145;43.118;25.694;2023-03-21T00:57:55;99331.19;;;9.47;78.78
33845;BME280;20145;43.118;25.694;2023-03-21T01:00:20;99335.38;;;9.56;77.47
33845;BME280;20145;43.118;25.694;2023-03-21T01:02:47;99319.94;;;9.59;78.11
33845;BME280;20145;43.118;25.694;2023-03-21T01:05:24;99320.75;;;9.63;77.90
33845;BME280;20145;43.118;25.694;2023-03-21T01:08:11;99317.28;;;9.64;77.94
33845;BME280;20145;43.118;25.694;2023-03-21T01:10:42;99319.91;;;9.62;77.95
33845;BME280;20145;43.118;25.694;2023-03-21T01:13:09;99318.22;;;9.59;78.44
33845;BME280;20145;43.118;25.694;2023-03-21T01:15:36;99317.44;;;9.51;78.86
33845;BME280;20145;43.118;25.694;2023-03-21T01:18:02;99307.16;;;9.47;78.13
33845;BME280;20145;43.118;25.694;2023-03-21T01:20:28;99306.34;;;9.42;78.88
33845;BME280;20145;43.118;25.694;2023-03-21T01:22:54;99302.91;;;9.43;79.50
33845;BME280;20145;43.118;25.694;2023-03-21T01:25:19;99295.16;;;9.46;78.97
33845;BME280;20145;43.118;25.694;2023-03-21T01:27:45;99299.41;;;9.51;79.54
33845;BME280;20145;43.118;25.694;2023-03-21T01:30:11;99297.66;;;9.53;78.45
33845;BME280;20145;43.118;25.694;2023-03-21T01:32:37;99299.38;;;9.54;78.97
33845;BME280;20145;43.118;25.694;2023-03-21T01:35:02;99291.69;;;9.51;79.29
33845;BME280;20145;43.118;25.694;2023-03-21T01:37:28;99290.78;;;9.52;79.14
33845;BME280;20145;43.118;25.694;2023-03-21T01:39:54;99292.53;;;9.52;79.98
33845;BME280;20145;43.118;25.694;2023-03-21T01:42:19;99301.91;;;9.57;79.83
33845;BME280;20145;43.118;25.694;2023-03-21T01:44:57;99295.88;;;9.60;80.82
33845;BME280;20145;43.118;25.694;2023-03-21T01:47:24;99288.19;;;9.55;80.13
33845;BME280;20145;43.118;25.694;2023-03-21T01:49:52;99292.53;;;9.52;80.98
33845;BME280;20145;43.118;25.694;2023-03-21T01:52:23;99296.78;;;9.53;80.37
33845;BME280;20145;43.118;25.694;2023-03-21T01:54:51;99286.47;;;9.56;80.71
33845;BME280;20145;43.118;25.694;2023-03-21T01:57:28;99289.84;;;9.63;80.79
33845;BME280;20145;43.118;25.694;2023-03-21T01:59:58;99289.81;;;9.66;80.79
33845;BME280;20145;43.118;25.694;2023-03-21T02:02:40;99291.53;;;9.64;80.99
33845;BME280;20145;43.118;25.694;2023-03-21T02:05:22;99294.13;;;9.65;80.44
33845;BME280;20145;43.118;25.694;2023-03-21T02:07:51;99290.63;;;9.69;79.36
33845;BME280;20145;43.118;25.694;2023-03-21T02:10:17;99284.63;;;9.70;80.00
33845;BME280;20145;43.118;25.694;2023-03-21T02:12:43;99282.94;;;9.66;79.86
33845;BME280;20145;43.118;25.694;2023-03-21T02:15:09;99287.31;;;9.59;80.53
33845;BME280;20145;43.118;25.694;2023-03-21T02:18:06;99283.84;;;9.60;80.10
33845;BME280;20145;43.118;25.694;2023-03-21T02:31:41;99282.16;;;9.58;80.67
33845;BME280;20145;43.118;25.694;2023-03-21T02:40:21;99293.34;;;9.55;80.79
33845;BME280;20145;43.118;25.694;2023-03-21T02:42:58;99301.09;;;9.52;79.67
33845;BME280;20145;43.118;25.694;2023-03-21T02:45:50;99291.75;;;9.45;79.52
33845;BME280;20145;43.118;25.694;2023-03-21T02:48:54;99291.56;;;9.60;79.47
33845;BME280;20145;43.118;25.694;2023-03-21T02:51:23;99294.09;;;9.68;79.50
33845;BME280;20145;43.118;25.694;2023-03-21T02:53:58;99297.53;;;9.66;79.50
33845;BME280;20145;43.118;25.694;2023-03-21T02:56:26;99293.25;;;9.65;79.32
33845;BME280;20145;43.118;25.694;2023-03-21T02:58:52;99296.69;;;9.64;79.88
33845;BME280;20145;43.118;25.694;2023-03-21T03:01:18;99300.94;;;9.69;80.42
33845;BME280;20145;43.118;25.694;2023-03-21T03:03:44;99302.66;;;9.70;80.02
33845;BME280;20145;43.118;25.694;2023-03-21T03:06:21;99289.00;;;9.60;80.77
33845;BME280;20145;43.118;25.694;2023-03-21T03:11:30;99312.88;;;9.75;79.97
33845;BME280;20145;43.118;25.694;2023-03-21T03:19:13;99319.03;;;9.65;78.35
33845;BME280;20145;43.118;25.694;2023-03-21T03:21:47;99319.72;;;9.79;78.80
33845;BME280;20145;43.118;25.694;2023-03-21T03:24:23;99311.91;;;9.88;79.22
33845;BME280;20145;43.118;25.694;2023-03-21T03:27:00;99317.81;;;9.98;78.29
33845;BME280;20145;43.118;25.694;2023-03-21T03:29:30;99315.16;;;10.02;79.09
33845;BME280;20145;43.118;25.694;2023-03-21T03:32:07;99317.75;;;10.04;78.67
33845;BME280;20145;43.118;25.694;2023-03-21T03:34:38;99313.44;;;10.03;79.24
33845;BME280;20145;43.118;25.694;2023-03-21T03:37:08;99307.47;;;10.01;79.63
33845;BME280;20145;43.118;25.694;2023-03-21T03:39:48;99302.19;;;10.10;79.85
33845;BME280;20145;43.118;25.694;2023-03-21T03:42:23;99300.47;;;10.12;79.40
33845;BME280;20145;43.118;25.694;2023-03-21T03:44:50;99303.03;;;10.11;78.74
33845;BME280;20145;43.118;25.694;2023-03-21T03:47:42;99310.72;;;10.15;79.20
33845;BME280;20145;43.118;25.694;2023-03-21T03:50:30;99307.31;;;10.15;79.32
33845;BME280;20145;43.118;25.694;2023-03-21T03:53:07;99310.69;;;10.17;78.77
33845;BME280;20145;43.118;25.694;2023-03-21T03:55:40;99301.19;;;10.22;77.89
33845;BME280;20145;43.118;25.694;2023-03-21T03:58:06;99300.28;;;10.27;79.03
33845;BME280;20145;43.118;25.694;2023-03-21T04:00:32;99310.59;;;10.26;79.11
33845;BME280;20145;43.118;25.694;2023-03-21T04:02:58;99307.28;;;10.18;78.90
33845;BME280;20145;43.118;25.694;2023-03-21T04:05:25;99309.81;;;10.19;79.21
33845;BME280;20145;43.118;25.694;2023-03-21T04:07:50;99315.84;;;10.18;79.68
33845;BME280;20145;43.118;25.694;2023-03-21T04:10:17;99302.97;;;10.17;77.55
33845;BME280;20145;43.118;25.694;2023-03-21T04:12:42;99307.97;;;10.31;77.44
33845;BME280;20145;43.118;25.694;2023-03-21T04:15:08;99312.25;;;10.33;78.13
33845;BME280;20145;43.118;25.694;2023-03-21T04:17:34;99319.09;;;10.37;77.94
33845;BME280;20145;43.118;25.694;2023-03-21T04:20:00;99308.72;;;10.40;77.74
33845;BME280;20145;43.118;25.694;2023-03-21T04:22:26;99307.00;;;10.41;78.17
33845;BME280;20145;43.118;25.694;2023-03-21T04:24:52;99307.06;;;10.36;79.13
33845;BME280;20145;43.118;25.694;2023-03-21T04:27:18;99313.19;;;10.29;77.71
33845;BME280;20145;43.118;25.694;2023-03-21T04:29:43;99323.53;;;10.23;76.63
33845;BME280;20145;43.118;25.694;2023-03-21T04:32:09;99317.50;;;10.24;77.08
33845;BME280;20145;43.118;25.694;2023-03-21T04:34:43;99317.50;;;10.27;75.96
33845;BME280;20145;43.118;25.694;2023-03-21T04:37:15;99317.38;;;10.38;77.97
33845;BME280;20145;43.118;25.694;2023-03-21T04:39:41;99322.47;;;10.41;77.76
33845;BME280;20145;43.118;25.694;2023-03-21T04:42:07;99331.84;;;10.48;77.30
33845;BME280;20145;43.118;25.694;2023-03-21T04:44:33;99318.84;;;10.56;77.87
33845;BME280;20145;43.118;25.694;2023-03-21T04:46:58;99309.41;;;10.55;78.51
33845;BME280;20145;43.118;25.694;2023-03-21T04:49:24;99310.16;;;10.63;78.04
33845;BME280;20145;43.118;25.694;2023-03-21T04:51:50;99310.94;;;10.68;77.58
33845;BME280;20145;43.118;25.694;2023-03-21T04:54:16;99313.44;;;10.74;77.02
33845;BME280;20145;43.118;25.694;2023-03-21T04:56:42;99322.06;;;10.73;75.71
33845;BME280;20145;43.118;25.694;2023-03-21T04:59:11;99318.59;;;10.76;75.27
33845;BME280;20145;43.118;25.694;2023-03-21T05:01:37;99321.91;;;10.81;75.30
33845;BME280;20145;43.118;25.694;2023-03-21T05:04:05;99331.50;;;10.74;74.68
33845;BME280;20145;43.118;25.694;2023-03-21T05:06:32;99316.81;;;10.78;74.84
33845;BME280;20145;43.118;25.694;2023-03-21T05:09:00;99314.16;;;10.84;75.63
33845;BME280;20145;43.118;25.694;2023-03-21T05:11:30;99304.59;;;10.89;75.51
33845;BME280;20145;43.118;25.694;2023-03-21T05:13:57;99296.78;;;10.95;75.91
33845;BME280;20145;43.118;25.694;2023-03-21T05:16:23;99289.84;;;10.97;74.74
33845;BME280;20145;43.118;25.694;2023-03-21T05:18:53;99286.28;;;11.06;76.30
33845;BME280;20145;43.118;25.694;2023-03-21T05:21:20;99273.41;;;11.03;75.00
33845;BME280;20145;43.118;25.694;2023-03-21T05:23:46;99283.56;;;11.13;74.15
33845;BME280;20145;43.118;25.694;2023-03-21T05:26:20;99284.38;;;11.17;73.77
33845;BME280;20145;43.118;25.694;2023-03-21T05:28:46;99278.28;;;11.23;72.32
33845;BME280;20145;43.118;25.694;2023-03-21T05:31:15;99272.88;;;11.35;71.59
33845;BME280;20145;43.118;25.694;2023-03-21T05:33:41;99285.66;;;11.43;71.89
33845;BME280;20145;43.118;25.694;2023-03-21T05:36:08;99288.97;;;11.51;71.59
33845;BME280;20145;43.118;25.694;2023-03-21T05:38:33;99287.22;;;11.53;71.14
33845;BME280;20145;43.118;25.694;2023-03-21T05:40:59;99305.81;;;11.22;72.10
33845;BME280;20145;43.118;25.694;2023-03-21T05:43:25;99317.97;;;11.14;72.02
33845;BME280;20145;43.118;25.694;2023-03-21T05:45:50;99315.28;;;11.23;71.71
33845;BME280;20145;43.118;25.694;2023-03-21T05:48:16;99308.69;;;11.56;71.42
33845;BME280;20145;43.118;25.694;2023-03-21T05:50:42;99320.34;;;11.79;70.42
33845;BME280;20145;43.118;25.694;2023-03-21T05:53:08;99318.34;;;11.95;69.54
33845;BME280;20145;43.118;25.694;2023-03-21T05:55:33;99327.34;;;12.19;69.40
33845;BME280;20145;43.118;25.694;2023-03-21T05:57:59;99326.53;;;12.17;67.17
33845;BME280;20145;43.118;25.694;2023-03-21T06:00:24;99330.19;;;12.05;67.12
33845;BME280;20145;43.118;25.694;2023-03-21T06:02:50;99342.53;;;11.92;66.70
33845;BME280;20145;43.118;25.694;2023-03-21T06:05:16;99345.88;;;11.97;67.24
33845;BME280;20145;43.118;25.694;2023-03-21T06:07:41;99344.91;;;12.03;67.63
33845;BME280;20145;43.118;25.694;2023-03-21T06:10:07;99344.66;;;12.17;65.96
33845;BME280;20145;43.118;25.694;2023-03-21T06:12:33;99347.31;;;12.12;66.11
33845;BME280;20145;43.118;25.694;2023-03-21T06:14:59;99347.25;;;12.17;64.76
33845;BME280;20145;43.118;25.694;2023-03-21T06:17:25;99328.25;;;12.18;63.07
33845;BME280;20145;43.118;25.694;2023-03-21T06:19:51;99347.69;;;12.37;62.43
33845;BME280;20145;43.118;25.694;2023-03-21T06:22:16;99348.75;;;12.27;62.31
33845;BME280;20145;43.118;25.694;2023-03-21T06:24:42;99352.41;;;12.17;63.50
33845;BME280;20145;43.118;25.694;2023-03-21T06:27:07;99353.28;;;12.16;63.67
33845;BME280;20145;43.118;25.694;2023-03-21T06:29:33;99351.59;;;12.13;64.55
33845;BME280;20145;43.118;25.694;2023-03-21T06:31:58;99337.03;;;12.09;64.48
33845;BME280;20145;43.118;25.694;2023-03-21T06:34:24;99333.28;;;12.24;63.47
33845;BME280;20145;43.118;25.694;2023-03-21T06:36:51;99352.84;;;12.39;63.73
33845;BME280;20145;43.118;25.694;2023-03-21T06:39:19;99350.88;;;12.50;62.31
33845;BME280;20145;43.118;25.694;2023-03-21T06:41:45;99348.94;;;12.60;62.29
33845;BME280;20145;43.118;25.694;2023-03-21T06:44:10;99350.31;;;12.76;63.81
33845;BME280;20145;43.118;25.694;2023-03-21T06:46:36;99355.97;;;12.93;63.04
33845;BME280;20145;43.118;25.694;2023-03-21T06:49:02;99360.81;;;13.07;62.28
33845;BME280;20145;43.118;25.694;2023-03-21T06:51:28;99357.06;;;13.21;61.86
33845;BME280;20145;43.118;25.694;2023-03-21T06:53:54;99357.84;;;13.24;62.34
33845;BME280;20145;43.118;25.694;2023-03-21T06:56:20;99365.44;;;13.33;60.91
33845;BME280;20145;43.118;25.694;2023-03-21T06:58:45;99367.53;;;13.53;60.82
33845;BME280;20145;43.118;25.694;2023-03-21T07:01:11;99366.28;;;13.68;58.50
33845;BME280;20145;43.118;25.694;2023-03-21T07:03:38;99363.59;;;13.73;58.24
33845;BME280;20145;43.118;25.694;2023-03-21T07:06:06;99363.50;;;13.77;58.81
33845;BME280;20145;43.118;25.694;2023-03-21T07:08:36;99359.19;;;13.76;57.83
33845;BME280;20145;43.118;25.694;2023-03-21T07:11:02;99363.00;;;13.96;57.96
33845;BME280;20145;43.118;25.694;2023-03-21T07:13:28;99358.28;;;14.10;55.92
33845;BME280;20145;43.118;25.694;2023-03-21T07:15:53;99368.91;;;14.32;57.15
33845;BME280;20145;43.118;25.694;2023-03-21T07:18:19;99367.22;;;14.31;54.43
33845;BME280;20145;43.118;25.694;2023-03-21T07:20:46;99374.81;;;14.39;56.07
33845;BME280;20145;43.118;25.694;2023-03-21T07:23:17;99367.97;;;14.35;55.45
33845;BME280;20145;43.118;25.694;2023-03-21T07:25:42;99370.03;;;14.55;54.80
33845;BME280;20145;43.118;25.694;2023-03-21T07:28:08;99367.13;;;14.65;52.32
33845;BME280;20145;43.118;25.694;2023-03-21T07:30:34;99358.84;;;14.82;51.24
33845;BME280;20145;43.118;25.694;2023-03-21T07:33:01;99372.00;;;15.06;50.94
33845;BME280;20145;43.118;25.694;2023-03-21T07:35:27;99367.22;;;15.18;50.63
33845;BME280;20145;43.118;25.694;2023-03-21T07:37:52;99372.25;;;15.25;49.68
33845;BME280;20145;43.118;25.694;2023-03-21T07:40:18;99368.94;;;15.46;51.61
33845;BME280;20145;43.118;25.694;2023-03-21T07:42:44;99351.28;;;15.57;50.29
33845;BME280;20145;43.118;25.694;2023-03-21T07:45:10;99350.63;;;15.77;49.76
33845;BME280;20145;43.118;25.694;2023-03-21T07:47:39;99362.78;;;16.02;48.56
33845;BME280;20145;43.118;25.694;2023-03-21T07:50:05;99358.34;;;16.04;47.73
33845;BME280;20145;43.118;25.694;2023-03-21T07:52:31;99340.91;;;16.08;48.44
33845;BME280;20145;43.118;25.694;2023-03-21T07:54:56;99349.22;;;16.17;48.19
33845;BME280;20145;43.118;25.694;2023-03-21T07:57:22;99354.88;;;16.28;49.65
33845;BME280;20145;43.118;25.694;2023-03-21T07:59:48;99363.09;;;16.41;47.66
33845;BME280;20145;43.118;25.694;2023-03-21T08:02:14;99364.41;;;16.30;48.57
33845;BME280;20145;43.118;25.694;2023-03-21T08:04:40;99361.72;;;16.31;47.29
33845;BME280;20145;43.118;25.694;2023-03-21T08:07:06;99362.91;;;16.46;47.01
33845;BME280;20145;43.118;25.694;2023-03-21T08:09:32;99371.03;;;16.62;46.63
33845;BME280;20145;43.118;25.694;2023-03-21T08:11:57;99368.97;;;16.70;46.48
33845;BME280;20145;43.118;25.694;2023-03-21T08:14:23;99363.66;;;16.73;46.75
33845;BME280;20145;43.118;25.694;2023-03-21T08:16:48;99371.34;;;16.76;46.41
33845;BME280;20145;43.118;25.694;2023-03-21T08:19:14;99367.88;;;16.77;46.67
33845;BME280;20145;43.118;25.694;2023-03-21T08:21:40;99366.38;;;16.70;46.80
33845;BME280;20145;43.118;25.694;2023-03-21T08:24:06;99368.28;;;16.65;46.81
33845;BME280;20145;43.118;25.694;2023-03-21T08:26:32;99374.47;;;16.62;47.50
33845;BME280;20145;43.118;25.694;2023-03-21T08:28:58;99371.66;;;16.68;47.60
33845;BME280;20145;43.118;25.694;2023-03-21T08:31:24;99360.44;;;16.90;46.98
33845;BME280;20145;43.118;25.694;2023-03-21T08:33:50;99360.94;;;17.22;46.20
33845;BME280;20145;43.118;25.694;2023-03-21T08:36:19;99356.53;;;17.44;46.05
33845;BME280;20145;43.118;25.694;2023-03-21T08:38:45;99362.56;;;17.46;46.38
33845;BME280;20145;43.118;25.694;2023-03-21T08:41:13;99359.56;;;17.55;44.51
33845;BME280;20145;43.118;25.694;2023-03-21T08:43:39;99365.88;;;17.50;44.74
33845;BME280;20145;43.118;25.694;2023-03-21T08:46:05;99359.59;;;17.54;44.30
33845;BME280;20145;43.118;25.694;2023-03-21T08:48:30;99359.47;;;17.79;44.73
33845;BME280;20145;43.118;25.694;2023-03-21T08:50:59;99361.47;;;18.13;44.03
33845;BME280;20145;43.118;25.694;2023-03-21T08:53:24;99358.41;;;18.24;43.48
33845;BME280;20145;43.118;25.694;2023-03-21T08:55:50;99351.41;;;18.24;44.77
33845;BME280;20145;43.118;25.694;2023-03-21T08:58:16;99335.59;;;18.27;44.46
33845;BME280;20145;43.118;25.694;2023-03-21T09:00:41;99351.69;;;18.37;44.82
33845;BME280;20145;43.118;25.694;2023-03-21T09:03:07;99349.22;;;17.95;45.98
33845;BME280;20145;43.118;25.694;2023-03-21T09:05:33;99350.66;;;18.41;44.98
33845;BME280;20145;43.118;25.694;2023-03-21T09:07:58;99348.16;;;18.78;43.90
33845;BME280;20145;43.118;25.694;2023-03-21T09:10:25;99342.19;;;18.55;44.49
33845;BME280;20145;43.118;25.694;2023-03-21T09:12:53;99347.91;;;18.63;44.58
33845;BME280;20145;43.118;25.694;2023-03-21T09:15:20;99343.47;;;18.46;45.08
33845;BME280;20145;43.118;25.694;2023-03-21T09:17:48;99346.06;;;18.46;44.24
33845;BME280;20145;43.118;25.694;2023-03-21T09:20:18;99336.81;;;18.58;44.79
33845;BME280;20145;43.118;25.694;2023-03-21T09:22:49;99332.53;;;18.57;44.15
33845;BME280;20145;43.118;25.694;2023-03-21T09:25:18;99334.16;;;18.20;44.89
33845;BME280;20145;43.118;25.694;2023-03-21T09:27:45;99336.78;;;18.20;45.19
33845;BME280;20145;43.118;25.694;2023-03-21T09:30:13;99341.56;;;18.11;45.64
33845;BME280;20145;43.118;25.694;2023-03-21T09:32:40;99339.75;;;18.13;44.86
33845;BME280;20145;43.118;25.694;2023-03-21T09:35:06;99343.94;;;18.36;45.24
33845;BME280;20145;43.118;25.694;2023-03-21T09:37:32;99344.44;;;18.44;45.05
33845;BME280;20145;43.118;25.694;2023-03-21T09:39:58;99331.44;;;18.42;44.86
33845;BME280;20145;43.118;25.694;2023-03-21T09:47:25;99343.75;;;18.78;44.68
33845;BME280;20145;43.118;25.694;2023-03-21T09:50:18;99343.19;;;18.71;44.75
33845;BME280;20145;43.118;25.694;2023-03-21T09:53:05;99282.03;;;18.38;45.62
33845;BME280;20145;43.118;25.694;2023-03-21T09:55:37;99327.41;;;18.73;45.50
33845;BME280;20145;43.118;25.694;2023-03-21T10:00:39;99322.13;;;18.93;45.35
33845;BME280;20145;43.118;25.694;2023-03-21T10:05:42;99311.44;;;19.34;44.46
33845;BME280;20145;43.118;25.694;2023-03-21T10:08:20;99323.47;;;19.73;44.29
33845;BME280;20145;43.118;25.694;2023-03-21T10:10:52;99331.38;;;19.72;43.07
33845;BME280;20145;43.118;25.694;2023-03-21T10:13:22;99320.97;;;19.35;44.29
33845;BME280;20145;43.118;25.694;2023-03-21T10:15:49;99312.00;;;19.22;44.33
33845;BME280;20145;43.118;25.694;2023-03-21T10:18:23;99322.59;;;19.38;43.93
33845;BME280;20145;43.118;25.694;2023-03-21T10:20:51;99328.34;;;19.45;44.58
33845;BME280;20145;43.118;25.694;2023-03-21T10:23:19;99322.25;;;19.61;43.35
33845;BME280;20145;43.118;25.694;2023-03-21T10:25:49;99310.13;;;19.78;42.73
33845;BME280;20145;43.118;25.694;2023-03-21T10:28:19;99303.72;;;20.01;42.78
33845;BME280;20145;43.118;25.694;2023-03-21T10:30:50;99314.63;;;19.92;42.57
33845;BME280;20145;43.118;25.694;2023-03-21T10:33:24;99307.28;;;19.82;43.29
33845;BME280;20145;43.118;25.694;2023-03-21T10:35:53;99309.28;;;20.11;41.79
33845;BME280;20145;43.118;25.694;2023-03-21T10:38:23;99309.25;;;19.95;42.03
33845;BME280;20145;43.118;25.694;2023-03-21T10:40:49;99306.72;;;19.93;42.92
33845;BME280;20145;43.118;25.694;2023-03-21T10:45:46;99299.19;;;19.70;42.51
33845;BME280;20145;43.118;25.694;2023-03-21T10:48:12;99293.69;;;19.92;42.55
33845;BME280;20145;43.118;25.694;2023-03-21T10:50:38;99278.25;;;19.70;41.92
33845;BME280;20145;43.118;25.694;2023-03-21T10:53:14;99286.38;;;19.81;41.53
33845;BME280;20145;43.118;25.694;2023-03-21T10:55:42;99285.84;;;19.92;41.47
33845;BME280;20145;43.118;25.694;2023-03-21T10:58:14;99290.75;;;19.98;42.61
33845;BME280;20145;43.118;25.694;2023-03-21T11:00:44;99282.31;;;19.93;42.14
33845;BME280;20145;43.118;25.694;2023-03-21T11:03:26;99277.78;;;19.44;42.86
33845;BME280;20145;43.118;25.694;2023-03-21T11:06:03;99287.09;;;19.67;44.06
33845;BME280;20145;43.118;25.694;2023-03-21T11:08:29;99278.97;;;19.73;43.19
33845;BME280;20145;43.118;25.694;2023-03-21T11:11:07;99268.06;;;19.81;43.05
33845;BME280;20145;43.118;25.694;2023-03-21T11:13:39;99272.06;;;19.88;42.28
33845;BME280;20145;43.118;25.694;2023-03-21T11:16:35;99274.03;;;20.00;42.57
33845;BME280;20145;43.118;25.694;2023-03-21T11:19:12;99277.25;;;20.05;41.94
33845;BME280;20145;43.118;25.694;2023-03-21T11:21:38;99269.16;;;20.10;42.19
33845;BME280;20145;43.118;25.694;2023-03-21T11:24:05;99278.47;;;20.16;41.13
33845;BME280;20145;43.118;25.694;2023-03-21T11:26:35;99279.97;;;20.20;41.45
33845;BME280;20145;43.118;25.694;2023-03-21T11:31:37;99265.47;;;20.78;40.54
33845;BME280;20145;43.118;25.694;2023-03-21T11:34:06;99271.69;;;21.07;40.27
33845;BME280;20145;43.118;25.694;2023-03-21T11:36:50;99266.41;;;20.77;41.60
33845;BME280;20145;43.118;25.694;2023-03-21T11:39:34;99271.06;;;20.71;40.90
33845;BME280;20145;43.118;25.694;2023-03-21T11:42:05;99261.84;;;20.80;41.41
33845;BME280;20145;43.118;25.694;2023-03-21T11:44:42;99254.38;;;20.88;40.79
33845;BME280;20145;43.118;25.694;2023-03-21T11:47:09;99255.16;;;20.75;41.08
33845;BME280;20145;43.118;25.694;2023-03-21T11:49:35;99256.94;;;20.74;42.02
33845;BME280;20145;43.118;25.694;2023-03-21T11:52:22;99260.56;;;20.40;41.51
33845;BME280;20145;43.118;25.694;2023-03-21T11:55:08;99235.09;;;20.10;42.60
33845;BME280;20145;43.118;25.694;2023-03-21T11:57:47;99237.97;;;20.05;42.82
33845;BME280;20145;43.118;25.694;2023-03-21T12:00:21;99240.34;;;20.10;42.38
33845;BME280;20145;43.118;25.694;2023-03-21T12:03:28;99225.13;;;20.33;41.94
33845;BME280;20145;43.118;25.694;2023-03-21T12:06:01;99211.53;;;20.42;41.29
33845;BME280;20145;43.118;25.694;2023-03-21T12:14:16;99217.47;;;19.80;41.77
33845;BME280;20145;43.118;25.694;2023-03-21T12:16:55;99215.72;;;19.97;42.50
33845;BME280;20145;43.118;25.694;2023-03-21T12:19:50;99215.06;;;20.09;41.40
33845;BME280;20145;43.118;25.694;2023-03-21T12:22:39;99203.75;;;20.09;41.58
33845;BME280;20145;43.118;25.694;2023-03-21T12:25:14;99216.75;;;20.10;42.06
33845;BME280;20145;43.118;25.694;2023-03-21T12:30:32;99215.59;;;20.16;42.36
33845;BME280;20145;43.118;25.694;2023-03-21T12:38:22;99212.44;;;19.43;42.90
33845;BME280;20145;43.118;25.694;2023-03-21T12:41:25;99206.44;;;19.23;44.45
33845;BME280;20145;43.118;25.694;2023-03-21T12:44:03;99206.91;;;19.31;44.49
33845;BME280;20145;43.118;25.694;2023-03-21T12:46:37;99199.75;;;19.35;44.81
33845;BME280;20145;43.118;25.694;2023-03-21T12:49:09;99191.59;;;19.41;43.95
33845;BME280;20145;43.118;25.694;2023-03-21T12:51:43;99182.84;;;19.58;43.37
33845;BME280;20145;43.118;25.694;2023-03-21T12:56:49;99168.66;;;19.79;42.77
33845;BME280;20145;43.118;25.694;2023-03-21T13:01:53;99150.91;;;19.69;43.10
33845;BME280;20145;43.118;25.694;2023-03-21T13:04:26;99152.84;;;19.48;43.61
33845;BME280;20145;43.118;25.694;2023-03-21T13:06:59;99146.78;;;19.14;43.86
33845;BME280;20145;43.118;25.694;2023-03-21T13:09:44;99141.72;;;18.93;43.97
33845;BME280;20145;43.118;25.694;2023-03-21T13:18:12;99136.34;;;18.79;44.57
33845;BME280;20145;43.118;25.694;2023-03-21T13:20:55;99135.25;;;18.83;43.92
33845;BME280;20145;43.118;25.694;2023-03-21T13:23:23;99120.88;;;18.92;44.38
33845;BME280;20145;43.118;25.694;2023-03-21T13:25:52;99129.56;;;19.10;44.09
33845;BME280;20145;43.118;25.694;2023-03-21T13:28:25;99121.59;;;18.96;43.91
33845;BME280;20145;43.118;25.694;2023-03-21T13:30:52;99126.94;;;18.92;44.24
33845;BME280;20145;43.118;25.694;2023-03-21T13:33:24;99124.28;;;18.77;43.92
33845;BME280;20145;43.118;25.694;2023-03-21T13:35:58;99125.41;;;18.71;43.44
33845;BME280;20145;43.118;25.694;2023-03-21T13:38:31;99123.34;;;18.78;43.57
33845;BME280;20145;43.118;25.694;2023-03-21T13:41:07;99114.56;;;18.96;43.55
33845;BME280;20145;43.118;25.694;2023-03-21T13:59:16;99117.66;;;19.53;42.85
33845;BME280;20145;43.118;25.694;2023-03-21T14:04:45;99110.34;;;19.60;42.54
33845;BME280;20145;43.118;25.694;2023-03-21T14:07:27;99102.47;;;19.44;42.36
33845;BME280;20145;43.118;25.694;2023-03-21T14:10:00;99095.81;;;19.54;42.51
33845;BME280;20145;43.118;25.694;2023-03-21T14:12:32;99104.47;;;19.72;41.98
33845;BME280;20145;43.118;25.694;2023-03-21T14:17:31;99104.00;;;19.64;42.21
33845;BME280;20145;43.118;25.694;2023-03-21T14:20:12;99105.88;;;19.62;41.65
33845;BME280;20145;43.118;25.694;2023-03-21T14:22:39;99106.13;;;19.57;42.68
33845;BME280;20145;43.118;25.694;2023-03-21T14:25:11;99116.47;;;19.43;42.56
33845;BME280;20145;43.118;25.694;2023-03-21T14:27:46;99114.59;;;19.45;42.58
33845;BME280;20145;43.118;25.694;2023-03-21T14:30:31;99105.50;;;19.52;42.14
33845;BME280;20145;43.118;25.694;2023-03-21T14:35:45;99104.25;;;19.44;42.83